createdAt,value
2023-01-23T00:02:30.725Z,3.265721676421405
2023-01-23T00:15:30.528Z,3.274866743311037
2023-01-23T00:24:03.355Z,3.265307535535117
2023-01-23T00:34:21.586Z,3.2505807117474923
2023-01-23T00:40:44.804Z,3.2217254128344486
2023-01-23T00:47:07.643Z,3.188974968645485
2023-01-23T00:55:47.082Z,3.1939165708612043
2023-01-23T01:02:12.621Z,3.115379389632107
2023-01-23T01:08:36.116Z,3.1916525135869565
2023-01-23T01:18:24.234Z,3.160292772784281
2023-01-23T01:24:50.359Z,3.165528976797659
2023-01-23T01:31:14.338Z,3.1859192098662206
2023-01-23T01:37:39.139Z,3.136308528428094
2023-01-23T01:45:03.709Z,3.1747067046404687
2023-01-23T01:51:30.255Z,3.168156877090301
2023-01-23T01:57:56.085Z,3.15259066680602
2023-01-23T02:28:07.251Z,2.8958873327759194
2023-01-23T02:34:31.627Z,2.9310847355769227
2023-01-23T02:41:19.018Z,2.9815831417224077
2023-01-23T02:47:46.783Z,2.9522124529682268
2023-01-23T02:58:45.734Z,2.9700629703177257
2023-01-23T03:05:10.002Z,3.020854018603679
2023-01-23T03:11:35.009Z,3.0597185932274247
2023-01-23T03:17:59.764Z,3.121658131270903
2023-01-23T03:36:23.970Z,3.022406067098662
2023-01-23T03:47:31.051Z,2.9962335388795984
2023-01-23T03:53:54.968Z,3.047020014632107
2023-01-23T04:00:20.396Z,3.1476072585702344
2023-01-23T04:06:46.946Z,3.1040395066889634
2023-01-23T04:19:10.547Z,3.1164101693143813
2023-01-23T04:25:36.087Z,3.1027552780100334
2023-01-23T04:31:59.776Z,3.132927466555184
2023-01-23T04:46:17.096Z,3.0486347721571905
2023-01-23T04:52:41.728Z,3.157434939381271
2023-01-23T05:00:37.197Z,3.1382172345317727
2023-01-23T05:07:01.851Z,3.1757250731605353
2023-01-23T05:14:36.341Z,3.131909098035117
2023-01-23T05:21:00.834Z,3.0223257211538463
2023-01-23T05:27:25.185Z,3.0219677571070234
2023-01-23T05:33:48.001Z,3.080127769648829
2023-01-23T05:41:15.500Z,3.0537142035953178
2023-01-23T05:52:09.457Z,3.0434730351170565
2023-01-23T06:04:07.613Z,3.0181888848244145
2023-01-23T06:10:30.844Z,3.105996551003345
2023-01-23T06:16:54.078Z,2.988891356605351
2023-01-23T06:23:21.854Z,2.9636235367892976
2023-01-23T06:30:11.302Z,3.0289127821906354
2023-01-23T06:36:33.549Z,2.9855272784280937
2023-01-23T06:42:56.876Z,3.026441654473244
2023-01-23T06:49:20.234Z,2.9230285848662207
2023-01-23T06:55:42.871Z,2.962791988921405
2023-01-23T07:07:11.749Z,2.933120819397993
2023-01-23T07:13:36.188Z,2.9064949571488294
2023-01-23T07:19:58.631Z,2.9947069659280934
2023-01-23T07:29:52.260Z,2.9655387750836124
2023-01-23T07:36:16.391Z,2.9411194868311035
2023-01-23T07:46:02.448Z,2.9231121969063545
2023-01-23T07:52:24.567Z,2.830048076923077
2023-01-23T07:58:49.001Z,2.904848191889632
2023-01-23T08:08:43.868Z,2.9574930758779265
2023-01-23T08:15:32.469Z,3.0743350229933113
2023-01-23T08:21:57.793Z,3.0548501515468227
2023-01-23T08:28:23.317Z,2.95851275083612
2023-01-23T08:34:48.999Z,3.0987660691889634
2023-01-23T08:42:30.014Z,3.2021647679765888
2023-01-23T08:48:56.261Z,3.119687369356187
2023-01-23T08:55:22.455Z,3.21086368624582
2023-01-23T09:01:49.321Z,3.206557012959866
2023-01-23T09:08:15.823Z,3.1560710179765885
2023-01-23T09:18:28.155Z,3.242205790133779
2023-01-23T09:31:17.897Z,3.3708938649665554
2023-01-23T09:47:32.919Z,3.5189570704431437
2023-01-23T09:53:59.792Z,3.605950825668897
2023-01-23T10:00:25.577Z,3.547922763377926
2023-01-23T10:10:19.383Z,3.868345004180602
2023-01-23T10:16:50.847Z,3.8399169105351176
2023-01-23T10:23:17.584Z,3.819646216555184
2023-01-23T10:29:43.029Z,3.717096049331104
2023-01-23T10:36:08.913Z,3.8081495610367893
2023-01-23T10:42:35.533Z,3.874606108904682
2023-01-23T10:49:02.743Z,3.963645093018395
2023-01-23T11:00:07.915Z,4.033166544732441
2023-01-23T11:06:34.225Z,4.110666414088628
2023-01-23T11:14:34.244Z,4.165220657399666
2023-01-23T11:24:40.198Z,4.255770537207358
2023-01-23T11:32:03.515Z,4.310827759197324
2023-01-23T11:38:31.272Z,4.273760843436455
2023-01-23T11:44:57.633Z,4.294553459448161
2023-01-23T11:51:23.388Z,4.206051421404682
2023-01-23T11:57:49.514Z,4.184812003553512
2023-01-23T12:14:01.097Z,4.173877769648829
2023-01-23T12:21:05.873Z,4.226638273411372
2023-01-23T12:27:31.897Z,4.29912468645485
2023-01-23T12:33:58.200Z,4.296013404055184
2023-01-23T12:41:35.744Z,4.177461329431439
2023-01-23T12:48:01.874Z,4.304618911998328
2023-01-23T13:00:39.793Z,4.332899378135451
2023-01-23T13:11:37.470Z,4.253817412207357
2023-01-23T13:18:04.144Z,4.452097486413043
2023-01-23T13:30:19.644Z,4.355089882943143
2023-01-23T13:36:45.061Z,4.423209526546823
2023-01-23T13:43:10.695Z,4.259184913252509
2023-01-23T14:21:02.298Z,4.310472408026756
2023-01-23T14:32:29.735Z,4.206917589882944
2023-01-23T14:38:55.862Z,4.183310252926422
2023-01-23T14:45:21.502Z,4.123955502717392
2023-01-23T14:51:46.571Z,4.104773724916388
2023-01-23T14:58:11.601Z,4.087914140886287
2023-01-23T15:08:22.344Z,4.135707566889632
2023-01-23T15:14:47.307Z,3.977482232441472
2023-01-23T15:21:12.273Z,4.098975099289298
2023-01-23T15:27:38.188Z,3.9584154211956517
2023-01-23T15:34:03.181Z,3.9138475909280936
2023-01-23T15:44:42.232Z,3.8697402801003347
2023-01-23T15:51:03.744Z,3.9169869617474915
2023-01-23T15:57:25.572Z,3.927594586120401
2023-01-23T16:03:47.303Z,3.952627247073579
2023-01-23T16:19:43.137Z,3.99266826923077
2023-01-23T16:26:05.406Z,3.9451393969481607
2023-01-23T16:37:35.193Z,3.985541649247492
2023-01-23T16:43:57.078Z,3.8879023829431443
2023-01-23T16:59:13.067Z,3.7943757838628764
2023-01-23T17:05:34.498Z,3.843331286580267
2023-01-23T17:11:56.882Z,3.7972394962374585
2023-01-23T17:24:08.124Z,3.8715189956103684
2023-01-23T17:30:30.569Z,3.77143473035117
2023-01-23T17:39:33.540Z,3.900378867056856
2023-01-23T17:46:51.098Z,3.86677466555184
2023-01-23T18:03:15.249Z,3.8048037729933104
2023-01-23T18:09:37.241Z,3.8531054034280934
2023-01-23T18:15:58.969Z,3.8719540395066887
2023-01-23T18:25:59.398Z,3.6425016983695646
2023-01-23T18:34:27.298Z,3.8023476693143814
2023-01-23T18:49:04.126Z,3.8411560670986624
2023-01-23T18:57:55.568Z,3.8276239809782613
2023-01-23T19:06:22.680Z,3.8489600752508366
2023-01-23T19:18:05.762Z,3.865510033444816
2023-01-23T19:27:19.631Z,3.8530224446070234
2023-01-23T19:33:43.269Z,3.79756414611204
2023-01-23T19:40:06.435Z,3.8383766199832787
2023-01-23T19:55:27.939Z,3.7843926369147156
2023-01-23T20:01:50.253Z,3.7089497543896317
2023-01-23T20:15:04.306Z,3.6635301264632107
2023-01-23T20:21:28.211Z,3.7902219638377925
2023-01-23T20:32:39.972Z,3.7176832932692303
2023-01-23T20:44:54.308Z,3.6995695286371233
2023-01-23T20:56:43.031Z,3.6730129076086953
2023-01-23T21:03:05.591Z,3.6456560932274242
2023-01-23T21:09:27.609Z,3.565235028219064
2023-01-23T21:15:48.857Z,3.636522131061873
2023-01-23T21:22:10.636Z,3.6672371446488294
2023-01-23T21:31:40.239Z,3.628205345944816
2023-01-23T21:38:02.631Z,3.6455476588628755
2023-01-23T21:47:26.820Z,3.646596075459866
2023-01-23T21:53:49.790Z,3.595921953386288
2023-01-23T22:00:33.528Z,3.591511418269231
2023-01-23T22:13:23.025Z,3.6332828177257523
2023-01-23T22:22:21.911Z,3.56285927048495
2023-01-23T22:33:20.364Z,3.614352529264214
2023-01-23T22:39:42.957Z,3.4986615541387964
2023-01-23T22:53:45.860Z,3.5126600386705684
2023-01-23T23:00:08.968Z,3.5152925114966553
2023-01-23T23:06:31.262Z,3.447293713419733
2023-01-23T23:12:53.243Z,3.5139625574832776
2023-01-23T23:19:16.190Z,3.5648986204013373
2023-01-23T23:25:39.560Z,3.471227659908027
2023-01-23T23:39:26.873Z,3.573043608904682
2023-01-23T23:45:50.736Z,3.5621067621237463
2023-01-23T23:52:59.355Z,3.6376051682692303
2023-01-23T23:59:43.268Z,3.6220369983277587
